Terminal Aerodrome Forecast
Issued by NWS Newport/Morehead City, NC

Home | Current Version | Previous Version | Text Only | Print | Product List | Glossary On
Versions: 1 2 3 4 5 6 7 8 9 10 11 12 13 14 15 16 17 18 19
000
FTUS42 KMHX 222332
TAFEWN
TAF
KEWN 222332Z 2300/2324 08006KT P6SM SCT008 BKN035
      TEMPO 2302/2303 BKN008
     FM230300 10011KT 4SM SHRA VCTS OVC007CB
     FM230800 15009KT P6SM OVC007
     FM230900 22007KT P6SM SCT015 BKN080
     FM231800 25005KT P6SM VCSH BKN035=

USA.gov is the U.S. government's official web portal to all federal, state and local government web resources and services.